URSS

Sochi International Airport

Sochi, Russian Federation
TAF URSS 211656Z 2118/2218 06005MPS 9999 SCT030 BECMG 2205/2206 28005G10MPS FEW030 BKN100 BECMG 2215/2217 BKN030CB BKN100
Issued Valid From Valid To
Jun-21 @ 16:56 UTC
(an hour ago)
Jun-21 @ 18:00 UTC
(11 minutes ago)
Jun-22 @ 18:00 UTC
(in 24 hours)
Jun-21 @ 18:00 to Jun-22 @ 05:00
TAF URSS 211656Z 2118/2218 06005MPS 9999 SCT030
Wind Visibility Clouds
60° at 10 knots 10,000+ meters
  • Scattered at 3,000' AGL
Becoming Jun-22 @ 05:00 to Jun-22 @ 15:00
BECMG 2205/2206 28005G10MPS FEW030 BKN100
Wind Visibility Clouds
280° at 10 knots
 Gusting to 19 knots
10,000+ meters
  • Few at 3,000' AGL
  • Broken at 10,000' AGL
Becoming Jun-22 @ 15:00 to Jun-22 @ 18:00
BECMG 2215/2217 BKN030CB BKN100
Wind Visibility Clouds
280° at 10 knots
 Gusting to 19 knots
10,000+ meters
  • Broken at 3,000' AGL
  • Broken at 10,000' AGL
TAF URSS 211656Z 2118/2218 06005MPS 9999 SCT030 BECMG 2205/2206 28005G10MPS FEW030 BKN100 BECMG 2215/2217 BKN030CB BKN100
Issued Jun-21 @ 16:56 UTC
(an hour ago)
Valid From Jun-21 @ 18:00 UTC
(11 minutes ago)
Valid To Jun-22 @ 18:00 UTC
(in 24 hours)
Jun-21 @ 18:00 - Jun-22 @ 05:00
Wind Visibility
60° at 10 knots 10,000+ meters
Clouds
  • Scattered at 3,000' AGL
Becoming Jun-22 @ 05:00 - Jun-22 @ 15:00
Wind Visibility
280° at 10 knots
 Gusting to 19 knots
10,000+ meters
Clouds
  • Few at 3,000' AGL
  • Broken at 10,000' AGL
Becoming Jun-22 @ 15:00 - Jun-22 @ 18:00
Wind Visibility
280° at 10 knots
 Gusting to 19 knots
10,000+ meters
Clouds
  • Broken at 3,000' AGL
  • Broken at 10,000' AGL